createdAt,value
2018-09-30T00:01:19.058Z,5.10
2018-09-30T00:03:46.721Z,5.10
2018-09-30T00:06:14.645Z,5.10
2018-09-30T00:08:42.277Z,5.00
2018-09-30T00:11:10.001Z,4.90
2018-09-30T00:13:37.756Z,4.90
2018-09-30T00:16:05.483Z,4.80
2018-09-30T00:18:33.151Z,4.80
2018-09-30T00:21:00.789Z,4.70
2018-09-30T00:23:32.968Z,4.70
2018-09-30T00:26:06.232Z,4.70
2018-09-30T00:28:34.011Z,4.60
2018-09-30T00:31:01.939Z,4.60
2018-09-30T00:33:30.068Z,4.60
2018-09-30T00:35:57.866Z,4.70
2018-09-30T00:38:25.560Z,4.70
2018-09-30T00:40:53.223Z,4.70
2018-09-30T00:43:20.884Z,4.60
2018-09-30T00:45:48.539Z,4.60
2018-09-30T00:48:16.228Z,4.50
2018-09-30T00:50:43.997Z,4.50
2018-09-30T00:53:11.696Z,4.50
2018-09-30T00:55:39.363Z,4.40
2018-09-30T00:58:07.021Z,4.30
2018-09-30T01:00:34.712Z,4.30
2018-09-30T01:03:02.398Z,4.40
2018-09-30T01:05:30.068Z,4.30
2018-09-30T01:07:57.777Z,4.20
2018-09-30T01:10:26.012Z,4.20
2018-09-30T01:12:53.702Z,4.10
2018-09-30T01:15:21.377Z,4.10
2018-09-30T01:17:49.073Z,4.00
2018-09-30T01:20:16.751Z,3.90
2018-09-30T01:22:44.407Z,4.00
2018-09-30T01:25:12.065Z,3.90
2018-09-30T01:27:46.340Z,3.90
2018-09-30T01:30:14.200Z,3.90
2018-09-30T01:32:41.864Z,3.80
2018-09-30T01:35:09.517Z,3.80
2018-09-30T01:37:37.181Z,3.80
2018-09-30T01:40:04.949Z,3.90
2018-09-30T01:42:32.659Z,3.90
2018-09-30T01:45:00.349Z,3.90
2018-09-30T01:47:28.005Z,3.90
2018-09-30T01:50:02.376Z,3.80
2018-09-30T01:52:48.278Z,3.70
2018-09-30T01:55:22.658Z,3.70
2018-09-30T01:57:50.362Z,3.60
2018-09-30T02:00:18.345Z,3.60
2018-09-30T02:02:46.416Z,3.50
2018-09-30T02:05:14.571Z,3.40
2018-09-30T02:07:42.737Z,3.30
2018-09-30T02:10:10.492Z,3.30
2018-09-30T02:12:38.204Z,3.30
2018-09-30T02:15:05.927Z,3.40
2018-09-30T02:17:33.848Z,3.40
2018-09-30T02:20:01.691Z,3.40
2018-09-30T02:22:29.623Z,3.30
2018-09-30T02:24:57.722Z,3.20
2018-09-30T02:27:25.396Z,3.10
2018-09-30T02:29:53.125Z,3.10
2018-09-30T02:32:21.305Z,3.10
2018-09-30T02:34:49.206Z,3.20
2018-09-30T02:37:16.869Z,3.20
2018-09-30T02:39:44.637Z,3.20
2018-09-30T02:42:12.860Z,3.10
2018-09-30T02:44:40.556Z,3.10
2018-09-30T02:47:08.503Z,3.10
2018-09-30T02:49:36.161Z,3.00
2018-09-30T02:52:04.112Z,3.00
2018-09-30T02:54:31.896Z,3.00
2018-09-30T02:56:59.596Z,3.00
2018-09-30T02:59:27.298Z,2.90
2018-09-30T03:01:54.928Z,2.80
2018-09-30T03:04:22.763Z,2.80
2018-09-30T03:06:56.148Z,2.60
2018-09-30T03:09:23.928Z,2.60
2018-09-30T03:11:51.715Z,2.80
2018-09-30T03:14:19.533Z,2.70
2018-09-30T03:16:47.196Z,2.70
2018-09-30T03:19:15.339Z,2.70
2018-09-30T03:21:43.343Z,2.70
2018-09-30T03:24:11.628Z,2.70
2018-09-30T03:26:39.905Z,2.60
2018-09-30T03:29:07.805Z,2.60
2018-09-30T03:31:35.510Z,2.60
2018-09-30T03:34:03.193Z,2.50
2018-09-30T03:36:30.854Z,2.50
2018-09-30T03:38:58.514Z,2.50
2018-09-30T03:41:26.217Z,2.50
2018-09-30T03:43:53.853Z,2.40
2018-09-30T03:46:21.644Z,2.40
2018-09-30T03:48:49.596Z,2.30
2018-09-30T03:51:17.372Z,2.40
2018-09-30T03:53:45.024Z,2.40
2018-09-30T03:56:12.701Z,2.40
2018-09-30T03:58:40.536Z,2.40
2018-09-30T04:01:08.332Z,2.30
2018-09-30T04:03:36.010Z,2.30
2018-09-30T04:06:03.746Z,2.30
2018-09-30T04:08:31.716Z,2.30
2018-09-30T04:10:59.435Z,2.40
2018-09-30T04:13:27.064Z,2.30
2018-09-30T04:15:54.741Z,2.20
2018-09-30T04:18:22.459Z,2.30
2018-09-30T04:20:50.213Z,2.30
2018-09-30T04:23:17.875Z,2.30
2018-09-30T04:25:45.524Z,2.20
2018-09-30T04:28:13.168Z,2.30
2018-09-30T04:30:40.820Z,2.30
2018-09-30T04:33:08.507Z,2.20
2018-09-30T04:35:36.153Z,2.10
2018-09-30T04:38:03.794Z,2.00
2018-09-30T04:40:31.559Z,2.00
2018-09-30T04:42:59.264Z,1.90
2018-09-30T04:45:26.926Z,1.90
2018-09-30T04:47:54.612Z,1.90
2018-09-30T04:50:22.325Z,1.90
2018-09-30T04:52:50.022Z,1.90
2018-09-30T04:55:17.724Z,2.00
2018-09-30T04:57:45.506Z,1.90
2018-09-30T05:00:13.268Z,1.90
2018-09-30T05:02:40.916Z,1.80
2018-09-30T05:05:08.807Z,1.80
2018-09-30T05:07:36.511Z,1.70
2018-09-30T05:10:04.252Z,1.70
2018-09-30T05:12:32.939Z,1.70
2018-09-30T05:15:00.548Z,1.80
2018-09-30T05:17:28.274Z,1.90
2018-09-30T05:19:56.769Z,1.90
2018-09-30T05:22:24.435Z,1.80
2018-09-30T05:24:52.062Z,1.70
2018-09-30T05:27:19.695Z,1.70
2018-09-30T05:29:47.441Z,1.70
2018-09-30T05:32:15.511Z,1.60
2018-09-30T05:34:43.180Z,1.60
2018-09-30T05:37:10.874Z,1.60
2018-09-30T05:39:38.496Z,1.60
2018-09-30T05:42:06.580Z,1.60
2018-09-30T05:44:34.749Z,1.60
2018-09-30T05:47:02.413Z,1.70
2018-09-30T05:49:30.069Z,1.70
2018-09-30T05:51:57.733Z,1.60
2018-09-30T05:54:25.429Z,1.60
2018-09-30T05:56:53.097Z,1.60
2018-09-30T05:59:20.814Z,1.60
2018-09-30T06:01:48.481Z,1.60
2018-09-30T06:04:16.146Z,1.70
2018-09-30T06:06:43.931Z,1.70
2018-09-30T06:09:13.416Z,1.80
2018-09-30T06:11:41.573Z,1.80
2018-09-30T06:14:09.366Z,1.90
2018-09-30T06:16:36.913Z,1.90
2018-09-30T06:19:04.593Z,2.10
2018-09-30T06:21:32.335Z,2.10
2018-09-30T06:23:59.993Z,2.10
2018-09-30T06:26:27.957Z,2.20
2018-09-30T06:29:02.391Z,2.20
2018-09-30T06:31:30.125Z,2.20
2018-09-30T06:33:58.037Z,2.30
2018-09-30T06:36:25.698Z,2.40
2018-09-30T06:38:53.316Z,2.50
2018-09-30T06:41:21.000Z,2.50
2018-09-30T06:43:55.225Z,2.60
2018-09-30T06:46:22.841Z,2.60
2018-09-30T06:48:50.385Z,2.60
2018-09-30T06:51:18.005Z,2.70
2018-09-30T06:53:45.546Z,2.80
2018-09-30T06:56:13.156Z,2.90
2018-09-30T06:58:40.725Z,3.00
2018-09-30T07:01:08.379Z,3.10
2018-09-30T07:03:36.037Z,3.30
2018-09-30T07:06:03.637Z,3.30
2018-09-30T07:08:31.593Z,3.40
2018-09-30T07:10:59.339Z,3.50
2018-09-30T07:13:26.981Z,3.60
2018-09-30T07:15:54.670Z,3.70
2018-09-30T07:18:22.376Z,3.70
2018-09-30T07:20:50.328Z,3.90
2018-09-30T07:23:17.978Z,3.90
2018-09-30T07:25:45.620Z,4.10
2018-09-30T07:28:13.273Z,4.10
2018-09-30T07:30:40.961Z,4.30
2018-09-30T07:33:08.637Z,4.40
2018-09-30T07:35:36.203Z,4.50
2018-09-30T07:38:03.843Z,4.60
2018-09-30T07:40:31.468Z,4.70
2018-09-30T07:42:59.328Z,4.80
2018-09-30T07:45:26.906Z,4.90
2018-09-30T07:47:54.456Z,4.90
2018-09-30T07:50:22.374Z,5.10
2018-09-30T07:52:50.070Z,5.20
2018-09-30T07:55:18.199Z,5.30
2018-09-30T07:57:45.817Z,5.40
2018-09-30T08:00:13.437Z,5.60
2018-09-30T08:02:41.267Z,5.70
2018-09-30T08:05:08.876Z,5.70
2018-09-30T08:07:36.446Z,5.90
2018-09-30T08:10:04.116Z,6.00
2018-09-30T08:12:31.741Z,6.10
2018-09-30T08:14:59.365Z,6.20
2018-09-30T08:17:27.279Z,6.40
2018-09-30T08:19:54.847Z,6.50
2018-09-30T08:22:23.072Z,6.60
2018-09-30T08:24:50.736Z,6.70
2018-09-30T08:27:18.286Z,6.90
2018-09-30T08:29:46.145Z,7.10
2018-09-30T08:32:13.773Z,7.30
2018-09-30T08:34:41.654Z,7.40
2018-09-30T08:37:09.504Z,7.50
2018-09-30T08:39:37.197Z,7.60
2018-09-30T08:42:04.803Z,7.80
2018-09-30T08:44:32.674Z,8.00
2018-09-30T08:47:00.425Z,8.30
2018-09-30T08:49:28.133Z,8.40
2018-09-30T08:51:55.771Z,8.70
2018-09-30T08:54:23.437Z,8.90
2018-09-30T08:56:51.140Z,9.10
2018-09-30T08:59:19.213Z,9.30
2018-09-30T09:01:46.894Z,9.50
2018-09-30T09:04:14.612Z,9.70
2018-09-30T09:06:42.276Z,9.80
2018-09-30T09:09:11.596Z,9.90
2018-09-30T09:11:39.270Z,10.00
2018-09-30T09:14:07.096Z,10.10
2018-09-30T09:16:34.801Z,10.30
2018-09-30T09:19:02.481Z,10.40
2018-09-30T09:21:30.147Z,10.70
2018-09-30T09:23:57.816Z,10.90
2018-09-30T09:26:25.502Z,11.20
2018-09-30T09:28:53.145Z,11.40
2018-09-30T09:31:20.756Z,11.70
2018-09-30T09:33:48.431Z,11.90
2018-09-30T09:36:16.113Z,12.30
2018-09-30T09:38:43.834Z,12.60
2018-09-30T09:41:11.670Z,12.90
2018-09-30T09:43:39.344Z,13.20
2018-09-30T09:46:07.192Z,13.30
2018-09-30T09:48:35.215Z,13.60
2018-09-30T09:51:03.496Z,13.80
2018-09-30T09:53:31.135Z,14.00
2018-09-30T09:55:58.859Z,14.40
2018-09-30T09:58:26.524Z,14.70
2018-09-30T10:00:54.332Z,14.90
2018-09-30T10:03:21.944Z,15.20
2018-09-30T10:05:49.633Z,15.40
2018-09-30T10:08:17.339Z,15.70
2018-09-30T10:10:45.044Z,15.90
2018-09-30T10:13:12.774Z,16.20
2018-09-30T10:15:40.352Z,16.40
2018-09-30T10:18:07.972Z,16.60
2018-09-30T10:20:35.620Z,16.60
2018-09-30T10:23:04.020Z,16.70
2018-09-30T10:25:31.814Z,17.00
2018-09-30T10:27:59.428Z,17.00
2018-09-30T10:30:27.307Z,17.20
2018-09-30T10:32:54.971Z,17.40
2018-09-30T10:35:22.633Z,17.70
2018-09-30T10:37:50.544Z,17.70
2018-09-30T10:40:18.252Z,17.80
2018-09-30T10:42:45.897Z,18.00
2018-09-30T10:45:13.795Z,18.10
2018-09-30T10:47:41.468Z,18.00
2018-09-30T10:50:09.085Z,18.30
2018-09-30T10:52:43.344Z,18.50
2018-09-30T10:55:11.051Z,18.60
2018-09-30T10:57:38.721Z,18.60
2018-09-30T11:00:06.453Z,18.60
2018-09-30T11:02:34.159Z,18.80
2018-09-30T11:05:02.223Z,19.10
2018-09-30T11:07:29.884Z,19.30
2018-09-30T11:09:57.613Z,19.30
2018-09-30T11:12:25.265Z,19.10
2018-09-30T11:14:52.952Z,19.20
2018-09-30T11:17:20.852Z,19.40
2018-09-30T11:19:48.521Z,19.60
2018-09-30T11:22:17.072Z,19.70
2018-09-30T11:24:44.722Z,19.80
2018-09-30T11:27:12.369Z,19.80
2018-09-30T11:29:40.913Z,19.80
2018-09-30T11:32:08.533Z,20.10
2018-09-30T11:34:36.212Z,20.30
2018-09-30T11:37:03.898Z,20.50
2018-09-30T11:39:31.583Z,20.60
2018-09-30T11:41:59.426Z,20.70
2018-09-30T11:44:27.468Z,20.70
2018-09-30T11:46:57.114Z,20.70
2018-09-30T11:49:25.743Z,20.50
2018-09-30T11:51:54.514Z,20.40
2018-09-30T11:54:22.371Z,20.50
2018-09-30T11:56:50.209Z,20.60
2018-09-30T11:59:17.888Z,20.70
2018-09-30T12:01:45.592Z,20.70
2018-09-30T12:04:13.245Z,20.60
2018-09-30T12:06:41.093Z,20.30
2018-09-30T12:09:09.368Z,20.20
2018-09-30T12:11:37.252Z,20.10
2018-09-30T12:14:04.901Z,20.10
2018-09-30T12:16:32.565Z,20.10
2018-09-30T12:19:00.295Z,20.10
2018-09-30T12:21:27.998Z,20.10
2018-09-30T12:23:55.668Z,20.10
2018-09-30T12:26:23.699Z,20.00
2018-09-30T12:28:51.615Z,20.10
2018-09-30T12:31:19.252Z,20.10
2018-09-30T12:33:46.901Z,20.20
2018-09-30T12:36:14.560Z,20.20
2018-09-30T12:38:42.227Z,20.20
2018-09-30T12:41:09.877Z,20.00
2018-09-30T12:43:37.909Z,20.00
2018-09-30T12:46:05.553Z,20.00
2018-09-30T12:48:33.255Z,20.10
2018-09-30T12:51:00.865Z,20.00
2018-09-30T12:53:28.572Z,20.10
2018-09-30T12:55:56.201Z,20.10
2018-09-30T12:58:23.893Z,20.10
2018-09-30T13:00:51.566Z,20.10
2018-09-30T13:03:19.208Z,20.10
2018-09-30T13:05:46.872Z,20.20
2018-09-30T13:08:14.533Z,20.20
2018-09-30T13:10:42.173Z,20.30
2018-09-30T13:13:09.808Z,20.30
2018-09-30T13:15:37.828Z,20.40
2018-09-30T13:18:05.564Z,20.40
2018-09-30T13:20:33.218Z,20.50
2018-09-30T13:23:01.220Z,20.50
2018-09-30T13:25:28.907Z,20.50
2018-09-30T13:27:56.638Z,20.40
2018-09-30T13:30:24.349Z,20.40
2018-09-30T13:32:52.537Z,20.40
2018-09-30T13:35:20.516Z,20.40
2018-09-30T13:37:48.212Z,20.50
2018-09-30T13:40:16.094Z,20.50
2018-09-30T13:42:46.612Z,20.50
2018-09-30T13:45:14.288Z,20.50
2018-09-30T13:47:41.941Z,20.40
2018-09-30T13:50:09.608Z,20.30
2018-09-30T13:52:37.287Z,20.30
2018-09-30T13:55:04.985Z,20.30
2018-09-30T13:57:32.616Z,20.30
2018-09-30T14:00:00.309Z,20.40
2018-09-30T14:02:27.998Z,20.50
2018-09-30T14:04:55.652Z,20.50
2018-09-30T14:07:23.289Z,20.50
2018-09-30T14:09:51.172Z,20.30
2018-09-30T14:12:18.828Z,20.20
2018-09-30T14:14:46.789Z,20.20
2018-09-30T14:17:14.432Z,20.10
2018-09-30T14:19:42.065Z,20.10
2018-09-30T14:22:09.702Z,20.10
2018-09-30T14:24:37.477Z,20.20
2018-09-30T14:27:05.173Z,20.10
2018-09-30T14:29:32.844Z,20.10
2018-09-30T14:32:00.653Z,20.10
2018-09-30T14:34:28.369Z,20.00
2018-09-30T14:36:56.003Z,20.00
2018-09-30T14:39:23.693Z,20.00
2018-09-30T14:41:51.423Z,19.90
2018-09-30T14:44:19.129Z,19.90
2018-09-30T14:46:46.792Z,19.90
2018-09-30T14:49:14.440Z,19.90
2018-09-30T14:51:42.206Z,19.80
2018-09-30T14:54:09.872Z,19.90
2018-09-30T14:56:37.549Z,19.90
2018-09-30T14:59:05.185Z,19.80
2018-09-30T15:01:32.848Z,19.80
2018-09-30T15:04:00.729Z,19.80
2018-09-30T15:06:28.622Z,19.80
2018-09-30T15:08:56.301Z,19.70
2018-09-30T15:11:23.983Z,19.70
2018-09-30T15:13:51.601Z,19.60
2018-09-30T15:16:19.273Z,19.60
2018-09-30T15:18:46.898Z,19.60
2018-09-30T15:21:14.571Z,19.50
2018-09-30T15:23:42.253Z,19.40
2018-09-30T15:26:09.953Z,19.40
2018-09-30T15:28:44.357Z,19.30
2018-09-30T15:31:12.008Z,19.30
2018-09-30T15:33:39.652Z,19.30
2018-09-30T15:36:07.361Z,19.30
2018-09-30T15:38:35.020Z,19.20
2018-09-30T15:41:02.691Z,19.20
2018-09-30T15:43:30.333Z,19.20
2018-09-30T15:45:58.170Z,19.20
2018-09-30T15:48:25.804Z,19.10
2018-09-30T15:50:53.476Z,19.10
2018-09-30T15:53:21.165Z,19.10
2018-09-30T15:55:49.128Z,19.00
2018-09-30T15:58:16.755Z,19.00
2018-09-30T16:00:44.518Z,19.00
2018-09-30T16:03:12.454Z,19.00
2018-09-30T16:05:40.360Z,19.00
2018-09-30T16:08:08.013Z,18.90
2018-09-30T16:10:35.988Z,18.90
2018-09-30T16:13:03.707Z,18.80
2018-09-30T16:15:31.337Z,18.80
2018-09-30T16:17:59.010Z,18.70
2018-09-30T16:20:26.685Z,18.70
2018-09-30T16:22:54.310Z,18.60
2018-09-30T16:25:22.056Z,18.60
2018-09-30T16:27:49.746Z,18.50
2018-09-30T16:30:17.473Z,18.40
2018-09-30T16:32:45.161Z,18.40
2018-09-30T16:35:12.845Z,18.30
2018-09-30T16:37:40.525Z,18.30
2018-09-30T16:40:08.227Z,18.20
2018-09-30T16:42:35.924Z,18.10
2018-09-30T16:45:03.693Z,18.10
2018-09-30T16:47:31.331Z,18.00
2018-09-30T16:49:59.260Z,18.00
2018-09-30T16:52:26.960Z,17.90
2018-09-30T16:54:54.716Z,17.90
2018-09-30T16:57:22.397Z,17.90
2018-09-30T16:59:50.041Z,17.80
2018-09-30T17:02:17.840Z,17.80
2018-09-30T17:04:45.634Z,17.70
2018-09-30T17:07:13.316Z,17.70
2018-09-30T17:09:40.938Z,17.60
2018-09-30T17:12:08.681Z,17.60
2018-09-30T17:14:36.381Z,17.50
2018-09-30T17:17:04.076Z,17.40
2018-09-30T17:19:31.763Z,17.30
2018-09-30T17:21:59.487Z,17.20
2018-09-30T17:24:27.124Z,17.10
2018-09-30T17:26:55.268Z,17.00
2018-09-30T17:29:22.957Z,16.90
2018-09-30T17:31:50.695Z,16.80
2018-09-30T17:34:18.360Z,16.60
2018-09-30T17:36:46.135Z,16.60
2018-09-30T17:39:13.764Z,16.50
2018-09-30T17:41:41.439Z,16.40
2018-09-30T17:44:09.111Z,16.20
2018-09-30T17:46:36.805Z,16.10
2018-09-30T17:49:04.489Z,16.10
2018-09-30T17:51:32.174Z,16.00
2018-09-30T17:53:59.819Z,15.90
2018-09-30T17:56:27.756Z,15.80
2018-09-30T17:58:55.418Z,15.70
2018-09-30T18:01:23.116Z,15.60
2018-09-30T18:03:51.753Z,15.60
2018-09-30T18:06:20.030Z,15.60
2018-09-30T18:08:47.701Z,15.40
2018-09-30T18:11:16.357Z,15.30
2018-09-30T18:13:44.024Z,15.20
2018-09-30T18:16:11.710Z,15.10
2018-09-30T18:18:39.661Z,15.00
2018-09-30T18:21:07.565Z,14.90
2018-09-30T18:23:35.438Z,14.90
2018-09-30T18:26:03.142Z,14.80
2018-09-30T18:28:30.785Z,14.80
2018-09-30T18:30:58.466Z,14.70
2018-09-30T18:33:26.128Z,14.60
2018-09-30T18:35:53.811Z,14.60
2018-09-30T18:38:21.469Z,14.50
2018-09-30T18:40:49.922Z,14.30
2018-09-30T18:43:17.552Z,14.30
2018-09-30T18:45:45.936Z,14.20
2018-09-30T18:48:13.597Z,14.20
2018-09-30T18:50:41.997Z,14.20
2018-09-30T18:53:09.656Z,14.10
2018-09-30T18:55:37.348Z,14.00
2018-09-30T18:58:04.981Z,14.00
2018-09-30T19:00:32.743Z,14.00
2018-09-30T19:03:00.567Z,13.90
2018-09-30T19:05:28.666Z,13.80
2018-09-30T19:07:56.688Z,13.70
2018-09-30T19:10:24.457Z,13.60
2018-09-30T19:12:52.381Z,13.60
2018-09-30T19:15:20.285Z,13.50
2018-09-30T19:17:48.561Z,13.50
2018-09-30T19:20:16.671Z,13.40
2018-09-30T19:22:44.418Z,13.30
2018-09-30T19:25:12.093Z,13.20
2018-09-30T19:27:40.017Z,13.20
2018-09-30T19:30:07.752Z,13.10
2018-09-30T19:32:35.449Z,13.00
2018-09-30T19:35:03.181Z,13.00
2018-09-30T19:37:30.872Z,13.00
2018-09-30T19:39:58.558Z,13.00
2018-09-30T19:42:26.254Z,12.80
2018-09-30T19:44:53.896Z,12.70
2018-09-30T19:47:21.604Z,12.70
2018-09-30T19:49:49.270Z,12.60
2018-09-30T19:52:17.031Z,12.50
2018-09-30T19:54:44.738Z,12.40
2018-09-30T19:57:12.457Z,12.40
2018-09-30T19:59:40.179Z,12.30
2018-09-30T20:02:08.025Z,12.30
2018-09-30T20:04:35.712Z,12.30
2018-09-30T20:07:03.438Z,12.20
2018-09-30T20:09:31.204Z,12.20
2018-09-30T20:11:58.900Z,12.10
2018-09-30T20:14:26.583Z,12.00
2018-09-30T20:16:54.249Z,12.00
2018-09-30T20:19:21.964Z,11.90
2018-09-30T20:21:49.745Z,11.90
2018-09-30T20:24:17.434Z,11.80
2018-09-30T20:26:45.101Z,11.80
2018-09-30T20:29:12.894Z,11.80
2018-09-30T20:31:40.581Z,11.70
2018-09-30T20:34:08.228Z,11.70
2018-09-30T20:36:36.149Z,11.70
2018-09-30T20:39:04.580Z,11.60
2018-09-30T20:41:32.532Z,11.50
2018-09-30T20:44:01.281Z,11.40
2018-09-30T20:46:35.630Z,11.40
2018-09-30T20:49:03.308Z,11.40
2018-09-30T20:51:30.955Z,11.40
2018-09-30T20:53:58.603Z,11.30
2018-09-30T20:56:26.220Z,11.20
2018-09-30T20:58:53.847Z,11.10
2018-09-30T21:01:21.516Z,11.10
2018-09-30T21:03:49.168Z,11.10
2018-09-30T21:06:23.710Z,11.10
2018-09-30T21:08:51.351Z,11.00
2018-09-30T21:11:19.061Z,10.90
2018-09-30T21:13:47.838Z,10.90
2018-09-30T21:16:15.492Z,10.80
2018-09-30T21:18:43.498Z,10.80
2018-09-30T21:21:11.125Z,10.80
2018-09-30T21:23:39.737Z,10.80
2018-09-30T21:26:07.492Z,10.70
2018-09-30T21:28:35.236Z,10.70
2018-09-30T21:31:02.914Z,10.60
2018-09-30T21:33:30.804Z,10.60
2018-09-30T21:35:58.479Z,10.70
2018-09-30T21:38:26.178Z,10.60
2018-09-30T21:40:53.845Z,10.60
2018-09-30T21:43:21.769Z,10.50
2018-09-30T21:45:49.429Z,10.50
2018-09-30T21:48:18.296Z,10.50
2018-09-30T21:50:46.212Z,10.50
2018-09-30T21:53:15.033Z,10.50
2018-09-30T21:55:42.700Z,10.40
2018-09-30T21:58:10.474Z,10.40
2018-09-30T22:00:39.932Z,10.30
2018-09-30T22:03:09.677Z,10.30
2018-09-30T22:05:37.794Z,10.30
2018-09-30T22:08:06.952Z,10.30
2018-09-30T22:10:34.895Z,10.30
2018-09-30T22:13:02.628Z,10.20
2018-09-30T22:15:30.405Z,10.20
2018-09-30T22:17:58.432Z,10.10
2018-09-30T22:20:26.280Z,10.10
2018-09-30T22:22:53.976Z,10.00
2018-09-30T22:25:21.711Z,10.00
2018-09-30T22:27:49.393Z,10.00
2018-09-30T22:30:17.095Z,10.00
2018-09-30T22:32:44.749Z,9.90
2018-09-30T22:35:12.414Z,9.90
2018-09-30T22:37:40.099Z,9.80
2018-09-30T22:40:07.891Z,9.80
2018-09-30T22:42:35.964Z,9.80
2018-09-30T22:45:03.937Z,9.80
2018-09-30T22:47:31.630Z,9.70
2018-09-30T22:49:59.765Z,9.70
2018-09-30T22:52:27.413Z,9.70
2018-09-30T22:54:55.089Z,9.60
2018-09-30T22:57:22.998Z,9.60
2018-09-30T22:59:50.652Z,9.60
2018-09-30T23:02:18.288Z,9.60
2018-09-30T23:04:45.949Z,9.60
2018-09-30T23:07:13.624Z,9.60
2018-09-30T23:09:41.621Z,9.60
2018-09-30T23:12:09.608Z,9.60
2018-09-30T23:14:37.266Z,9.60
2018-09-30T23:17:05.301Z,9.60
2018-09-30T23:19:33.202Z,9.50
2018-09-30T23:22:00.862Z,9.40
2018-09-30T23:24:28.785Z,9.40
2018-09-30T23:26:56.488Z,9.40
2018-09-30T23:29:24.204Z,9.30
2018-09-30T23:31:51.868Z,9.30
2018-09-30T23:34:19.585Z,9.30
2018-09-30T23:36:47.262Z,9.30
2018-09-30T23:39:14.953Z,9.30
2018-09-30T23:41:42.628Z,9.30
2018-09-30T23:44:10.401Z,9.30
2018-09-30T23:46:38.052Z,9.30
2018-09-30T23:49:06.150Z,9.30
2018-09-30T23:51:33.949Z,9.30
2018-09-30T23:54:01.626Z,9.40
2018-09-30T23:56:29.565Z,9.40
2018-09-30T23:58:57.285Z,9.50
